Airfield :
LOGIN :

Register | Disclaimer

   EN    FR    IT 

 










Legend :    VFR   Marginal VFR   IFR   Intensive IFR   Very Intensive IFR
Visi :
Ceiling :
>= 8 km
>= 3000ft
5 to 8 km
1000 to 3000 ft
1500m to 5 km
500 to 1000 ft
800 to 1500m
200 to 500 ft
< 800m
< 200 ft
Symbols :   Thunderstorms  Fog  Heavy snow  Heavy precipitations  Wind > 20 kt
SIGMETs :     Misc.  Thunderstorms  Icing  Turbulence  Mountain Waves  Volcanic Ashes






- Airport Elevation : 0 ft


ETEB - Ansbach Army Heliport

CURRENT METAR :
  • 171756Z AUTO 00000KT 9999 OVC070 15/10 A2999 RMK AO2 SLP167 T01480098 10174 20148 58001 $

EXPIRED METARs :
  • 171656Z AUTO 01003KT 9999 FEW050 OVC060 16/10 A3000 RMK AO2 SLP170 T01590100 $
  • 171556Z AUTO 34003KT 9999 BKN070 17/10 A3000 RMK AO2 SLP168 T01660095 $

TAF TAF ETEB
Valid from the 17 at 17:00 until the 18 at 23:00 UTC


171700Z 1717/1823 30006KT 9999 FEW035 BKN060 QNH3000INS
TEMPO 1803/1806 8000 BR BKN025
BECMG 1810/1811 VRB06KT 9999 BKN040 QNH3003INS TX18/1814Z TN10/1803Z LAST NO AMDS AFT 1720 NEXT 2009



MET'MAP, your aeronautical weather chart ! - Copyright ORBIFLY December 2007 - Disclaimer

ORBIFLY MET'MAP TEAM :

Programming & Development : Alexandra Zaïnal
Concept & original design : Baudouin d'Aumeries
Assistance for programming : Marc-Olivier Méhu
Technical & hardware support : Manuel Goepfert

Contact : metmap@orbifly.com




SOURCES & CREDITS :

   NOAA